sensor_id;sensor_type;location;lat;lon;timestamp;P1;durP1;ratioP1;P2;durP2;ratioP2
19543;SDS011;9917;51.256;7.152;2023-04-21T00:00:22;24.60;;;17.23;;
19543;SDS011;9917;51.256;7.152;2023-04-21T00:02:48;28.77;;;18.97;;
19543;SDS011;9917;51.256;7.152;2023-04-21T00:05:15;27.63;;;18.63;;
19543;SDS011;9917;51.256;7.152;2023-04-21T00:07:40;28.48;;;18.08;;
19543;SDS011;9917;51.256;7.152;2023-04-21T00:10:06;27.60;;;17.73;;
19543;SDS011;9917;51.256;7.152;2023-04-21T00:12:34;26.35;;;17.75;;
19543;SDS011;9917;51.256;7.152;2023-04-21T00:15:00;26.67;;;17.38;;
19543;SDS011;9917;51.256;7.152;2023-04-21T00:17:26;26.70;;;17.23;;
19543;SDS011;9917;51.256;7.152;2023-04-21T00:19:52;29.20;;;18.52;;
19543;SDS011;9917;51.256;7.152;2023-04-21T00:22:17;27.70;;;18.05;;
19543;SDS011;9917;51.256;7.152;2023-04-21T00:24:43;30.13;;;18.57;;
19543;SDS011;9917;51.256;7.152;2023-04-21T00:27:09;27.92;;;18.27;;
19543;SDS011;9917;51.256;7.152;2023-04-21T00:29:36;27.70;;;18.50;;
19543;SDS011;9917;51.256;7.152;2023-04-21T00:32:02;29.10;;;18.50;;
19543;SDS011;9917;51.256;7.152;2023-04-21T00:34:28;29.08;;;17.52;;
19543;SDS011;9917;51.256;7.152;2023-04-21T00:36:53;29.07;;;18.70;;
19543;SDS011;9917;51.256;7.152;2023-04-21T00:39:19;30.05;;;19.30;;
19543;SDS011;9917;51.256;7.152;2023-04-21T00:41:45;29.63;;;18.53;;
19543;SDS011;9917;51.256;7.152;2023-04-21T00:44:11;29.33;;;19.13;;
19543;SDS011;9917;51.256;7.152;2023-04-21T00:46:38;27.63;;;18.80;;
19543;SDS011;9917;51.256;7.152;2023-04-21T00:49:04;30.35;;;18.13;;
19543;SDS011;9917;51.256;7.152;2023-04-21T00:51:31;31.00;;;19.65;;
19543;SDS011;9917;51.256;7.152;2023-04-21T00:53:58;30.93;;;18.57;;
19543;SDS011;9917;51.256;7.152;2023-04-21T00:56:26;31.83;;;19.47;;
19543;SDS011;9917;51.256;7.152;2023-04-21T00:58:54;29.30;;;18.77;;
19543;SDS011;9917;51.256;7.152;2023-04-21T01:01:22;31.27;;;19.03;;
19543;SDS011;9917;51.256;7.152;2023-04-21T01:03:50;30.50;;;18.02;;
19543;SDS011;9917;51.256;7.152;2023-04-21T01:06:18;28.63;;;18.70;;
19543;SDS011;9917;51.256;7.152;2023-04-21T01:08:44;31.50;;;19.50;;
19543;SDS011;9917;51.256;7.152;2023-04-21T01:11:10;32.70;;;18.58;;
19543;SDS011;9917;51.256;7.152;2023-04-21T01:13:36;32.08;;;19.88;;
19543;SDS011;9917;51.256;7.152;2023-04-21T01:16:03;35.92;;;20.17;;
19543;SDS011;9917;51.256;7.152;2023-04-21T01:18:29;30.63;;;18.73;;
19543;SDS011;9917;51.256;7.152;2023-04-21T01:20:56;33.03;;;19.95;;
19543;SDS011;9917;51.256;7.152;2023-04-21T01:23:23;31.50;;;20.55;;
19543;SDS011;9917;51.256;7.152;2023-04-21T01:25:49;33.35;;;20.45;;
19543;SDS011;9917;51.256;7.152;2023-04-21T01:28:19;33.20;;;20.15;;
19543;SDS011;9917;51.256;7.152;2023-04-21T01:30:45;33.67;;;19.92;;
19543;SDS011;9917;51.256;7.152;2023-04-21T01:33:14;36.65;;;20.63;;
19543;SDS011;9917;51.256;7.152;2023-04-21T01:35:44;32.15;;;20.15;;
19543;SDS011;9917;51.256;7.152;2023-04-21T01:38:10;33.20;;;20.75;;
19543;SDS011;9917;51.256;7.152;2023-04-21T01:40:38;29.15;;;18.63;;
19543;SDS011;9917;51.256;7.152;2023-04-21T01:43:18;30.73;;;20.70;;
19543;SDS011;9917;51.256;7.152;2023-04-21T01:45:50;33.40;;;19.35;;
19543;SDS011;9917;51.256;7.152;2023-04-21T01:48:16;32.42;;;19.50;;
19543;SDS011;9917;51.256;7.152;2023-04-21T01:50:42;32.03;;;19.53;;
19543;SDS011;9917;51.256;7.152;2023-04-21T01:53:08;32.95;;;19.05;;
19543;SDS011;9917;51.256;7.152;2023-04-21T01:55:33;30.45;;;19.20;;
19543;SDS011;9917;51.256;7.152;2023-04-21T01:58:01;34.97;;;19.63;;
19543;SDS011;9917;51.256;7.152;2023-04-21T02:00:26;33.83;;;20.35;;
19543;SDS011;9917;51.256;7.152;2023-04-21T02:02:52;33.38;;;20.85;;
19543;SDS011;9917;51.256;7.152;2023-04-21T02:05:18;32.40;;;20.80;;
19543;SDS011;9917;51.256;7.152;2023-04-21T02:07:44;31.17;;;19.67;;
19543;SDS011;9917;51.256;7.152;2023-04-21T02:10:09;32.03;;;20.03;;
19543;SDS011;9917;51.256;7.152;2023-04-21T02:12:36;31.60;;;19.20;;
19543;SDS011;9917;51.256;7.152;2023-04-21T02:15:04;31.80;;;20.37;;
19543;SDS011;9917;51.256;7.152;2023-04-21T02:17:30;34.55;;;20.95;;
19543;SDS011;9917;51.256;7.152;2023-04-21T02:19:56;34.50;;;19.98;;
19543;SDS011;9917;51.256;7.152;2023-04-21T02:22:22;35.20;;;20.92;;
19543;SDS011;9917;51.256;7.152;2023-04-21T02:24:48;31.95;;;19.92;;
19543;SDS011;9917;51.256;7.152;2023-04-21T02:27:14;34.22;;;20.75;;
19543;SDS011;9917;51.256;7.152;2023-04-21T02:29:39;32.57;;;20.33;;
19543;SDS011;9917;51.256;7.152;2023-04-21T02:32:06;33.10;;;19.58;;
19543;SDS011;9917;51.256;7.152;2023-04-21T02:34:32;33.38;;;19.20;;
19543;SDS011;9917;51.256;7.152;2023-04-21T02:36:58;35.22;;;20.38;;
19543;SDS011;9917;51.256;7.152;2023-04-21T02:39:24;32.83;;;20.73;;
19543;SDS011;9917;51.256;7.152;2023-04-21T02:41:49;35.35;;;21.20;;
19543;SDS011;9917;51.256;7.152;2023-04-21T02:44:15;36.15;;;20.73;;
19543;SDS011;9917;51.256;7.152;2023-04-21T02:46:41;33.00;;;20.73;;
19543;SDS011;9917;51.256;7.152;2023-04-21T02:49:08;35.15;;;20.95;;
19543;SDS011;9917;51.256;7.152;2023-04-21T02:51:35;32.55;;;20.90;;
19543;SDS011;9917;51.256;7.152;2023-04-21T02:54:00;34.78;;;20.00;;
19543;SDS011;9917;51.256;7.152;2023-04-21T02:56:26;34.13;;;20.67;;
19543;SDS011;9917;51.256;7.152;2023-04-21T03:01:53;35.92;;;21.75;;
19543;SDS011;9917;51.256;7.152;2023-04-21T03:07:01;35.83;;;21.58;;
19543;SDS011;9917;51.256;7.152;2023-04-21T03:09:35;36.67;;;21.17;;
19543;SDS011;9917;51.256;7.152;2023-04-21T03:12:00;34.17;;;20.75;;
19543;SDS011;9917;51.256;7.152;2023-04-21T03:14:26;35.70;;;21.38;;
19543;SDS011;9917;51.256;7.152;2023-04-21T03:16:52;35.75;;;21.65;;
19543;SDS011;9917;51.256;7.152;2023-04-21T03:19:17;38.20;;;21.10;;
19543;SDS011;9917;51.256;7.152;2023-04-21T03:21:45;37.72;;;22.02;;
19543;SDS011;9917;51.256;7.152;2023-04-21T03:24:10;37.78;;;21.85;;
19543;SDS011;9917;51.256;7.152;2023-04-21T03:26:37;38.27;;;22.60;;
19543;SDS011;9917;51.256;7.152;2023-04-21T03:29:03;36.85;;;21.75;;
19543;SDS011;9917;51.256;7.152;2023-04-21T03:31:31;36.97;;;21.70;;
19543;SDS011;9917;51.256;7.152;2023-04-21T03:33:56;37.25;;;22.10;;
19543;SDS011;9917;51.256;7.152;2023-04-21T03:36:22;33.37;;;20.43;;
19543;SDS011;9917;51.256;7.152;2023-04-21T03:38:51;39.75;;;22.33;;
19543;SDS011;9917;51.256;7.152;2023-04-21T03:41:17;41.20;;;24.93;;
19543;SDS011;9917;51.256;7.152;2023-04-21T03:43:43;38.93;;;22.60;;
19543;SDS011;9917;51.256;7.152;2023-04-21T03:46:15;40.13;;;22.48;;
19543;SDS011;9917;51.256;7.152;2023-04-21T03:48:42;38.20;;;23.07;;
19543;SDS011;9917;51.256;7.152;2023-04-21T03:51:07;37.37;;;23.07;;
19543;SDS011;9917;51.256;7.152;2023-04-21T03:53:33;41.45;;;23.65;;
19543;SDS011;9917;51.256;7.152;2023-04-21T03:56:00;42.17;;;23.83;;
19543;SDS011;9917;51.256;7.152;2023-04-21T03:58:26;39.22;;;22.90;;
19543;SDS011;9917;51.256;7.152;2023-04-21T04:00:51;41.05;;;24.17;;
19543;SDS011;9917;51.256;7.152;2023-04-21T04:03:17;39.45;;;22.92;;
19543;SDS011;9917;51.256;7.152;2023-04-21T04:05:43;41.42;;;22.65;;
19543;SDS011;9917;51.256;7.152;2023-04-21T04:08:09;39.17;;;22.93;;
19543;SDS011;9917;51.256;7.152;2023-04-21T04:10:34;41.07;;;23.20;;
19543;SDS011;9917;51.256;7.152;2023-04-21T04:13:01;39.93;;;23.67;;
19543;SDS011;9917;51.256;7.152;2023-04-21T04:15:27;43.85;;;24.52;;
19543;SDS011;9917;51.256;7.152;2023-04-21T04:17:53;36.90;;;22.43;;
19543;SDS011;9917;51.256;7.152;2023-04-21T04:20:19;43.83;;;23.60;;
19543;SDS011;9917;51.256;7.152;2023-04-21T04:22:44;42.17;;;24.15;;
19543;SDS011;9917;51.256;7.152;2023-04-21T04:25:10;41.93;;;24.03;;
19543;SDS011;9917;51.256;7.152;2023-04-21T04:27:36;44.08;;;24.20;;
19543;SDS011;9917;51.256;7.152;2023-04-21T04:30:03;40.40;;;23.67;;
19543;SDS011;9917;51.256;7.152;2023-04-21T04:32:30;41.97;;;23.65;;
19543;SDS011;9917;51.256;7.152;2023-04-21T04:34:56;44.42;;;25.50;;
19543;SDS011;9917;51.256;7.152;2023-04-21T04:37:22;43.87;;;24.50;;
19543;SDS011;9917;51.256;7.152;2023-04-21T04:39:47;40.88;;;24.15;;
19543;SDS011;9917;51.256;7.152;2023-04-21T04:42:16;41.80;;;24.43;;
19543;SDS011;9917;51.256;7.152;2023-04-21T04:44:42;44.40;;;24.50;;
19543;SDS011;9917;51.256;7.152;2023-04-21T04:47:09;45.33;;;24.85;;
19543;SDS011;9917;51.256;7.152;2023-04-21T04:49:35;43.97;;;24.63;;
19543;SDS011;9917;51.256;7.152;2023-04-21T04:52:00;44.83;;;25.73;;
19543;SDS011;9917;51.256;7.152;2023-04-21T04:54:26;40.77;;;24.07;;
19543;SDS011;9917;51.256;7.152;2023-04-21T04:56:52;40.97;;;23.08;;
19543;SDS011;9917;51.256;7.152;2023-04-21T04:59:17;37.50;;;22.17;;
19543;SDS011;9917;51.256;7.152;2023-04-21T05:01:43;32.03;;;19.83;;
19543;SDS011;9917;51.256;7.152;2023-04-21T05:04:10;32.25;;;19.80;;
19543;SDS011;9917;51.256;7.152;2023-04-21T05:06:36;40.65;;;22.35;;
19543;SDS011;9917;51.256;7.152;2023-04-21T05:09:01;34.67;;;20.53;;
19543;SDS011;9917;51.256;7.152;2023-04-21T05:11:27;38.63;;;22.67;;
19543;SDS011;9917;51.256;7.152;2023-04-21T05:13:53;43.20;;;24.50;;
19543;SDS011;9917;51.256;7.152;2023-04-21T05:16:19;35.17;;;21.63;;
19543;SDS011;9917;51.256;7.152;2023-04-21T05:18:44;42.47;;;22.63;;
19543;SDS011;9917;51.256;7.152;2023-04-21T05:21:11;36.00;;;21.43;;
19543;SDS011;9917;51.256;7.152;2023-04-21T05:23:37;34.63;;;20.13;;
19543;SDS011;9917;51.256;7.152;2023-04-21T05:26:03;37.93;;;22.20;;
19543;SDS011;9917;51.256;7.152;2023-04-21T05:28:29;38.10;;;22.07;;
19543;SDS011;9917;51.256;7.152;2023-04-21T05:30:54;38.83;;;22.83;;
19543;SDS011;9917;51.256;7.152;2023-04-21T05:33:20;44.10;;;26.13;;
19543;SDS011;9917;51.256;7.152;2023-04-21T05:35:46;38.80;;;23.42;;
19543;SDS011;9917;51.256;7.152;2023-04-21T05:38:13;36.77;;;21.40;;
19543;SDS011;9917;51.256;7.152;2023-04-21T05:40:39;34.23;;;21.27;;
19543;SDS011;9917;51.256;7.152;2023-04-21T05:43:04;38.08;;;21.20;;
19543;SDS011;9917;51.256;7.152;2023-04-21T05:45:30;38.22;;;23.67;;
19543;SDS011;9917;51.256;7.152;2023-04-21T05:47:56;34.15;;;21.30;;
19543;SDS011;9917;51.256;7.152;2023-04-21T05:50:21;39.08;;;23.27;;
19543;SDS011;9917;51.256;7.152;2023-04-21T05:52:48;37.25;;;22.50;;
19543;SDS011;9917;51.256;7.152;2023-04-21T05:55:15;37.33;;;21.73;;
19543;SDS011;9917;51.256;7.152;2023-04-21T05:57:40;35.38;;;22.33;;
19543;SDS011;9917;51.256;7.152;2023-04-21T06:00:07;35.47;;;21.63;;
19543;SDS011;9917;51.256;7.152;2023-04-21T06:02:33;38.87;;;21.67;;
19543;SDS011;9917;51.256;7.152;2023-04-21T06:04:59;33.97;;;21.00;;
19543;SDS011;9917;51.256;7.152;2023-04-21T06:07:25;36.65;;;22.25;;
19543;SDS011;9917;51.256;7.152;2023-04-21T06:09:50;32.43;;;20.03;;
19543;SDS011;9917;51.256;7.152;2023-04-21T06:12:17;36.13;;;21.98;;
19543;SDS011;9917;51.256;7.152;2023-04-21T06:14:43;36.03;;;21.00;;
19543;SDS011;9917;51.256;7.152;2023-04-21T06:17:09;40.40;;;22.77;;
19543;SDS011;9917;51.256;7.152;2023-04-21T06:19:35;31.40;;;20.23;;
19543;SDS011;9917;51.256;7.152;2023-04-21T06:22:01;31.90;;;20.45;;
19543;SDS011;9917;51.256;7.152;2023-04-21T06:24:30;35.65;;;21.00;;
19543;SDS011;9917;51.256;7.152;2023-04-21T06:26:56;32.72;;;19.95;;
19543;SDS011;9917;51.256;7.152;2023-04-21T06:29:23;31.60;;;18.63;;
19543;SDS011;9917;51.256;7.152;2023-04-21T06:31:49;31.15;;;18.95;;
19543;SDS011;9917;51.256;7.152;2023-04-21T06:34:14;33.45;;;19.00;;
19543;SDS011;9917;51.256;7.152;2023-04-21T06:36:40;31.45;;;18.92;;
19543;SDS011;9917;51.256;7.152;2023-04-21T06:39:06;27.65;;;18.58;;
19543;SDS011;9917;51.256;7.152;2023-04-21T06:41:32;29.23;;;18.40;;
19543;SDS011;9917;51.256;7.152;2023-04-21T06:43:57;28.20;;;18.42;;
19543;SDS011;9917;51.256;7.152;2023-04-21T06:46:25;27.42;;;17.15;;
19543;SDS011;9917;51.256;7.152;2023-04-21T06:48:50;28.85;;;17.30;;
19543;SDS011;9917;51.256;7.152;2023-04-21T06:51:16;27.23;;;16.20;;
19543;SDS011;9917;51.256;7.152;2023-04-21T06:53:42;25.65;;;16.02;;
19543;SDS011;9917;51.256;7.152;2023-04-21T06:56:08;26.02;;;16.70;;
19543;SDS011;9917;51.256;7.152;2023-04-21T06:58:33;23.38;;;15.65;;
19543;SDS011;9917;51.256;7.152;2023-04-21T07:00:59;25.50;;;15.90;;
19543;SDS011;9917;51.256;7.152;2023-04-21T07:03:26;25.52;;;15.68;;
19543;SDS011;9917;51.256;7.152;2023-04-21T07:05:52;24.45;;;15.55;;
19543;SDS011;9917;51.256;7.152;2023-04-21T07:08:17;21.38;;;14.27;;
19543;SDS011;9917;51.256;7.152;2023-04-21T07:10:43;23.25;;;14.77;;
19543;SDS011;9917;51.256;7.152;2023-04-21T07:13:09;22.77;;;14.60;;
19543;SDS011;9917;51.256;7.152;2023-04-21T07:15:35;22.00;;;14.00;;
19543;SDS011;9917;51.256;7.152;2023-04-21T07:18:08;21.92;;;13.30;;
19543;SDS011;9917;51.256;7.152;2023-04-21T07:20:37;21.67;;;13.52;;
19543;SDS011;9917;51.256;7.152;2023-04-21T07:23:06;20.08;;;13.00;;
19543;SDS011;9917;51.256;7.152;2023-04-21T07:25:32;19.55;;;12.95;;
19543;SDS011;9917;51.256;7.152;2023-04-21T07:27:57;22.35;;;13.23;;
19543;SDS011;9917;51.256;7.152;2023-04-21T07:30:32;22.08;;;13.57;;
19543;SDS011;9917;51.256;7.152;2023-04-21T07:32:58;18.38;;;12.68;;
19543;SDS011;9917;51.256;7.152;2023-04-21T07:35:23;19.10;;;12.70;;
19543;SDS011;9917;51.256;7.152;2023-04-21T07:37:51;20.23;;;12.98;;
19543;SDS011;9917;51.256;7.152;2023-04-21T07:40:17;20.70;;;13.68;;
19543;SDS011;9917;51.256;7.152;2023-04-21T07:48:37;21.58;;;12.48;;
19543;SDS011;9917;51.256;7.152;2023-04-21T07:51:04;21.70;;;13.98;;
19543;SDS011;9917;51.256;7.152;2023-04-21T07:53:37;23.13;;;14.75;;
19543;SDS011;9917;51.256;7.152;2023-04-21T07:56:06;24.08;;;15.38;;
19543;SDS011;9917;51.256;7.152;2023-04-21T07:58:31;21.17;;;14.30;;
19543;SDS011;9917;51.256;7.152;2023-04-21T08:00:57;20.92;;;14.90;;
19543;SDS011;9917;51.256;7.152;2023-04-21T08:03:23;22.73;;;16.08;;
19543;SDS011;9917;51.256;7.152;2023-04-21T08:05:48;23.27;;;14.65;;
19543;SDS011;9917;51.256;7.152;2023-04-21T08:08:14;24.48;;;14.52;;
19543;SDS011;9917;51.256;7.152;2023-04-21T08:10:43;23.05;;;14.63;;
19543;SDS011;9917;51.256;7.152;2023-04-21T08:13:08;23.83;;;14.50;;
19543;SDS011;9917;51.256;7.152;2023-04-21T08:15:34;21.58;;;13.80;;
19543;SDS011;9917;51.256;7.152;2023-04-21T08:18:00;21.88;;;14.98;;
19543;SDS011;9917;51.256;7.152;2023-04-21T08:20:26;26.38;;;16.60;;
19543;SDS011;9917;51.256;7.152;2023-04-21T08:22:52;27.85;;;17.05;;
19543;SDS011;9917;51.256;7.152;2023-04-21T08:25:17;27.27;;;16.45;;
19543;SDS011;9917;51.256;7.152;2023-04-21T08:27:44;27.65;;;18.08;;
19543;SDS011;9917;51.256;7.152;2023-04-21T08:30:10;24.83;;;16.65;;
19543;SDS011;9917;51.256;7.152;2023-04-21T08:32:37;25.10;;;15.65;;
19543;SDS011;9917;51.256;7.152;2023-04-21T08:35:02;24.10;;;15.85;;
19543;SDS011;9917;51.256;7.152;2023-04-21T08:37:29;26.95;;;17.33;;
19543;SDS011;9917;51.256;7.152;2023-04-21T08:39:54;25.33;;;15.60;;
19543;SDS011;9917;51.256;7.152;2023-04-21T08:42:20;25.27;;;16.17;;
19543;SDS011;9917;51.256;7.152;2023-04-21T08:44:47;22.75;;;15.65;;
19543;SDS011;9917;51.256;7.152;2023-04-21T08:47:13;24.63;;;16.08;;
19543;SDS011;9917;51.256;7.152;2023-04-21T08:49:40;24.27;;;15.85;;
19543;SDS011;9917;51.256;7.152;2023-04-21T08:52:07;27.67;;;15.68;;
19543;SDS011;9917;51.256;7.152;2023-04-21T08:54:34;25.13;;;16.52;;
19543;SDS011;9917;51.256;7.152;2023-04-21T08:57:01;23.67;;;15.60;;
19543;SDS011;9917;51.256;7.152;2023-04-21T08:59:29;24.50;;;15.88;;
19543;SDS011;9917;51.256;7.152;2023-04-21T09:02:09;23.83;;;16.10;;
19543;SDS011;9917;51.256;7.152;2023-04-21T09:04:39;22.05;;;14.30;;
19543;SDS011;9917;51.256;7.152;2023-04-21T09:07:06;24.25;;;16.38;;
19543;SDS011;9917;51.256;7.152;2023-04-21T09:09:32;21.42;;;14.88;;
19543;SDS011;9917;51.256;7.152;2023-04-21T09:11:57;19.52;;;14.15;;
19543;SDS011;9917;51.256;7.152;2023-04-21T09:14:27;22.48;;;14.25;;
19543;SDS011;9917;51.256;7.152;2023-04-21T09:16:59;24.55;;;14.40;;
19543;SDS011;9917;51.256;7.152;2023-04-21T09:19:27;26.80;;;14.18;;
19543;SDS011;9917;51.256;7.152;2023-04-21T09:21:54;20.52;;;14.07;;
19543;SDS011;9917;51.256;7.152;2023-04-21T09:24:20;21.45;;;14.30;;
19543;SDS011;9917;51.256;7.152;2023-04-21T09:26:48;24.23;;;15.00;;
19543;SDS011;9917;51.256;7.152;2023-04-21T09:29:14;23.23;;;15.40;;
19543;SDS011;9917;51.256;7.152;2023-04-21T09:31:40;22.52;;;14.45;;
19543;SDS011;9917;51.256;7.152;2023-04-21T09:34:15;21.08;;;14.85;;
19543;SDS011;9917;51.256;7.152;2023-04-21T09:36:44;22.98;;;15.32;;
19543;SDS011;9917;51.256;7.152;2023-04-21T09:39:11;27.05;;;15.82;;
19543;SDS011;9917;51.256;7.152;2023-04-21T09:41:37;24.08;;;16.23;;
19543;SDS011;9917;51.256;7.152;2023-04-21T09:44:02;26.58;;;16.48;;
19543;SDS011;9917;51.256;7.152;2023-04-21T09:46:29;25.27;;;16.00;;
19543;SDS011;9917;51.256;7.152;2023-04-21T09:48:58;26.48;;;16.02;;
19543;SDS011;9917;51.256;7.152;2023-04-21T09:51:25;26.33;;;16.00;;
19543;SDS011;9917;51.256;7.152;2023-04-21T09:53:52;24.63;;;15.50;;
19543;SDS011;9917;51.256;7.152;2023-04-21T09:56:23;25.80;;;15.68;;
19543;SDS011;9917;51.256;7.152;2023-04-21T09:58:51;23.48;;;15.77;;
19543;SDS011;9917;51.256;7.152;2023-04-21T10:01:18;23.17;;;16.20;;
19543;SDS011;9917;51.256;7.152;2023-04-21T10:03:46;25.50;;;16.50;;
19543;SDS011;9917;51.256;7.152;2023-04-21T10:06:13;26.45;;;16.35;;
19543;SDS011;9917;51.256;7.152;2023-04-21T10:08:39;26.52;;;16.10;;
19543;SDS011;9917;51.256;7.152;2023-04-21T10:11:07;30.13;;;16.95;;
19543;SDS011;9917;51.256;7.152;2023-04-21T10:13:34;26.48;;;16.02;;
19543;SDS011;9917;51.256;7.152;2023-04-21T10:16:01;27.00;;;16.98;;
19543;SDS011;9917;51.256;7.152;2023-04-21T10:18:28;28.77;;;16.33;;
19543;SDS011;9917;51.256;7.152;2023-04-21T10:20:55;25.42;;;16.58;;
19543;SDS011;9917;51.256;7.152;2023-04-21T10:23:25;25.98;;;16.08;;
19543;SDS011;9917;51.256;7.152;2023-04-21T10:26:10;26.83;;;17.45;;
19543;SDS011;9917;51.256;7.152;2023-04-21T10:28:38;29.70;;;17.10;;
19543;SDS011;9917;51.256;7.152;2023-04-21T10:31:15;27.58;;;16.65;;
19543;SDS011;9917;51.256;7.152;2023-04-21T10:34:11;26.25;;;15.95;;
19543;SDS011;9917;51.256;7.152;2023-04-21T10:36:41;26.00;;;15.98;;
19543;SDS011;9917;51.256;7.152;2023-04-21T10:39:24;24.80;;;16.33;;
19543;SDS011;9917;51.256;7.152;2023-04-21T10:41:52;25.90;;;15.90;;
19543;SDS011;9917;51.256;7.152;2023-04-21T10:44:20;26.20;;;16.48;;
19543;SDS011;9917;51.256;7.152;2023-04-21T10:46:47;24.85;;;16.08;;
19543;SDS011;9917;51.256;7.152;2023-04-21T10:49:20;25.35;;;16.83;;
19543;SDS011;9917;51.256;7.152;2023-04-21T10:52:01;25.23;;;15.40;;
19543;SDS011;9917;51.256;7.152;2023-04-21T10:54:29;26.30;;;15.43;;
19543;SDS011;9917;51.256;7.152;2023-04-21T10:57:07;24.30;;;14.43;;
19543;SDS011;9917;51.256;7.152;2023-04-21T10:59:34;25.58;;;16.08;;
19543;SDS011;9917;51.256;7.152;2023-04-21T11:02:01;22.92;;;14.55;;
19543;SDS011;9917;51.256;7.152;2023-04-21T11:04:27;22.38;;;14.38;;
19543;SDS011;9917;51.256;7.152;2023-04-21T11:07:03;25.52;;;14.48;;
19543;SDS011;9917;51.256;7.152;2023-04-21T11:09:35;21.02;;;13.23;;
19543;SDS011;9917;51.256;7.152;2023-04-21T11:12:02;20.65;;;13.50;;
19543;SDS011;9917;51.256;7.152;2023-04-21T11:14:32;20.17;;;12.85;;
19543;SDS011;9917;51.256;7.152;2023-04-21T11:16:59;22.05;;;12.93;;
19543;SDS011;9917;51.256;7.152;2023-04-21T11:19:25;18.88;;;12.18;;
19543;SDS011;9917;51.256;7.152;2023-04-21T11:21:52;19.00;;;11.57;;
19543;SDS011;9917;51.256;7.152;2023-04-21T11:24:18;17.45;;;11.32;;
19543;SDS011;9917;51.256;7.152;2023-04-21T11:26:44;17.05;;;11.02;;
19543;SDS011;9917;51.256;7.152;2023-04-21T11:29:10;16.90;;;10.90;;
19543;SDS011;9917;51.256;7.152;2023-04-21T11:31:38;16.35;;;10.73;;
19543;SDS011;9917;51.256;7.152;2023-04-21T11:34:05;16.40;;;10.68;;
19543;SDS011;9917;51.256;7.152;2023-04-21T11:36:31;18.98;;;11.10;;
19543;SDS011;9917;51.256;7.152;2023-04-21T11:38:57;17.23;;;10.23;;
19543;SDS011;9917;51.256;7.152;2023-04-21T11:41:23;16.13;;;10.80;;
19543;SDS011;9917;51.256;7.152;2023-04-21T11:43:49;19.92;;;10.80;;
19543;SDS011;9917;51.256;7.152;2023-04-21T11:46:16;17.38;;;10.57;;
19543;SDS011;9917;51.256;7.152;2023-04-21T11:48:48;16.75;;;11.18;;
19543;SDS011;9917;51.256;7.152;2023-04-21T11:51:23;19.80;;;10.80;;
19543;SDS011;9917;51.256;7.152;2023-04-21T11:53:49;17.05;;;11.40;;
19543;SDS011;9917;51.256;7.152;2023-04-21T11:56:19;15.55;;;10.82;;
19543;SDS011;9917;51.256;7.152;2023-04-21T11:58:51;15.98;;;10.75;;
19543;SDS011;9917;51.256;7.152;2023-04-21T12:01:17;15.10;;;10.65;;
19543;SDS011;9917;51.256;7.152;2023-04-21T12:04:01;16.48;;;11.10;;
19543;SDS011;9917;51.256;7.152;2023-04-21T12:06:27;16.20;;;11.07;;
19543;SDS011;9917;51.256;7.152;2023-04-21T12:08:54;16.17;;;10.23;;
19543;SDS011;9917;51.256;7.152;2023-04-21T12:11:20;16.23;;;10.55;;
19543;SDS011;9917;51.256;7.152;2023-04-21T12:13:46;15.32;;;9.88;;
19543;SDS011;9917;51.256;7.152;2023-04-21T12:16:12;14.60;;;9.82;;
19543;SDS011;9917;51.256;7.152;2023-04-21T12:18:38;16.63;;;10.57;;
19543;SDS011;9917;51.256;7.152;2023-04-21T12:21:14;16.17;;;10.82;;
19543;SDS011;9917;51.256;7.152;2023-04-21T12:23:41;15.30;;;10.52;;
19543;SDS011;9917;51.256;7.152;2023-04-21T12:26:22;16.40;;;9.95;;
19543;SDS011;9917;51.256;7.152;2023-04-21T12:28:48;18.05;;;9.15;;
19543;SDS011;9917;51.256;7.152;2023-04-21T12:31:14;14.10;;;9.82;;
19543;SDS011;9917;51.256;7.152;2023-04-21T12:36:09;15.55;;;8.82;;
19543;SDS011;9917;51.256;7.152;2023-04-21T12:38:36;14.00;;;9.68;;
19543;SDS011;9917;51.256;7.152;2023-04-21T12:41:05;13.48;;;9.02;;
19543;SDS011;9917;51.256;7.152;2023-04-21T12:43:31;12.65;;;8.02;;
19543;SDS011;9917;51.256;7.152;2023-04-21T12:45:57;12.30;;;8.30;;
19543;SDS011;9917;51.256;7.152;2023-04-21T12:48:23;12.75;;;8.35;;
19543;SDS011;9917;51.256;7.152;2023-04-21T12:50:49;11.57;;;7.95;;
19543;SDS011;9917;51.256;7.152;2023-04-21T12:53:15;10.65;;;7.70;;
19543;SDS011;9917;51.256;7.152;2023-04-21T12:55:42;10.52;;;7.22;;
19543;SDS011;9917;51.256;7.152;2023-04-21T12:58:07;13.95;;;7.40;;
19543;SDS011;9917;51.256;7.152;2023-04-21T13:00:33;12.35;;;7.97;;
19543;SDS011;9917;51.256;7.152;2023-04-21T13:02:59;9.85;;;7.18;;
19543;SDS011;9917;51.256;7.152;2023-04-21T13:05:25;15.65;;;10.52;;
19543;SDS011;9917;51.256;7.152;2023-04-21T13:07:51;10.15;;;6.38;;
19543;SDS011;9917;51.256;7.152;2023-04-21T13:10:17;9.27;;;6.30;;
19543;SDS011;9917;51.256;7.152;2023-04-21T13:12:53;10.65;;;6.00;;
19543;SDS011;9917;51.256;7.152;2023-04-21T13:15:19;10.65;;;6.60;;
19543;SDS011;9917;51.256;7.152;2023-04-21T13:17:45;11.48;;;6.80;;
19543;SDS011;9917;51.256;7.152;2023-04-21T13:20:11;9.48;;;6.55;;
19543;SDS011;9917;51.256;7.152;2023-04-21T13:22:37;11.02;;;7.18;;
19543;SDS011;9917;51.256;7.152;2023-04-21T13:25:04;10.18;;;6.78;;
19543;SDS011;9917;51.256;7.152;2023-04-21T13:27:30;8.85;;;6.13;;
19543;SDS011;9917;51.256;7.152;2023-04-21T13:29:58;7.68;;;6.10;;
19543;SDS011;9917;51.256;7.152;2023-04-21T13:32:23;7.20;;;5.53;;
19543;SDS011;9917;51.256;7.152;2023-04-21T13:34:49;8.70;;;5.95;;
19543;SDS011;9917;51.256;7.152;2023-04-21T13:37:16;8.77;;;6.03;;
19543;SDS011;9917;51.256;7.152;2023-04-21T13:39:41;9.70;;;6.35;;
19543;SDS011;9917;51.256;7.152;2023-04-21T13:42:07;10.55;;;6.25;;
19543;SDS011;9917;51.256;7.152;2023-04-21T13:44:33;9.07;;;6.15;;
19543;SDS011;9917;51.256;7.152;2023-04-21T13:47:01;9.38;;;5.75;;
19543;SDS011;9917;51.256;7.152;2023-04-21T13:49:26;7.90;;;5.38;;
19543;SDS011;9917;51.256;7.152;2023-04-21T13:51:52;7.10;;;4.80;;
19543;SDS011;9917;51.256;7.152;2023-04-21T13:54:18;8.38;;;4.90;;
19543;SDS011;9917;51.256;7.152;2023-04-21T13:56:44;7.97;;;5.28;;
19543;SDS011;9917;51.256;7.152;2023-04-21T13:59:10;7.20;;;5.00;;
19543;SDS011;9917;51.256;7.152;2023-04-21T14:01:36;8.10;;;5.38;;
19543;SDS011;9917;51.256;7.152;2023-04-21T14:04:03;7.57;;;5.10;;
19543;SDS011;9917;51.256;7.152;2023-04-21T14:06:29;8.77;;;5.40;;
19543;SDS011;9917;51.256;7.152;2023-04-21T14:08:55;9.93;;;5.38;;
19543;SDS011;9917;51.256;7.152;2023-04-21T14:11:23;9.13;;;6.25;;
19543;SDS011;9917;51.256;7.152;2023-04-21T14:13:49;6.97;;;5.00;;
19543;SDS011;9917;51.256;7.152;2023-04-21T14:16:14;7.07;;;5.57;;
19543;SDS011;9917;51.256;7.152;2023-04-21T14:18:40;10.23;;;5.68;;
19543;SDS011;9917;51.256;7.152;2023-04-21T14:21:08;7.93;;;5.22;;
19543;SDS011;9917;51.256;7.152;2023-04-21T14:23:37;10.45;;;6.10;;
19543;SDS011;9917;51.256;7.152;2023-04-21T14:26:02;7.20;;;5.40;;
19543;SDS011;9917;51.256;7.152;2023-04-21T14:28:28;6.93;;;4.32;;
19543;SDS011;9917;51.256;7.152;2023-04-21T14:30:54;8.75;;;5.05;;
19543;SDS011;9917;51.256;7.152;2023-04-21T14:33:20;9.57;;;4.53;;
19543;SDS011;9917;51.256;7.152;2023-04-21T14:35:46;6.45;;;4.63;;
19543;SDS011;9917;51.256;7.152;2023-04-21T14:38:14;8.48;;;5.57;;
19543;SDS011;9917;51.256;7.152;2023-04-21T14:40:40;9.45;;;4.78;;
19543;SDS011;9917;51.256;7.152;2023-04-21T14:43:06;8.88;;;4.20;;
19543;SDS011;9917;51.256;7.152;2023-04-21T14:45:33;6.95;;;4.97;;
19543;SDS011;9917;51.256;7.152;2023-04-21T14:47:59;7.70;;;4.63;;
19543;SDS011;9917;51.256;7.152;2023-04-21T14:50:25;8.88;;;5.15;;